sensor_id;sensor_type;location;lat;lon;timestamp;pressure;altitude;pressure_sealevel;temperature;humidity
20013;BME280;10167;42.852;23.042;2023-03-13T00:01:46;95129.72;;;0.12;100.00
20013;BME280;10167;42.852;23.042;2023-03-13T00:04:15;95133.00;;;0.06;100.00
20013;BME280;10167;42.852;23.042;2023-03-13T00:06:44;95138.53;;;0.03;100.00
20013;BME280;10167;42.852;23.042;2023-03-13T00:09:16;95136.25;;;0.08;100.00
20013;BME280;10167;42.852;23.042;2023-03-13T00:11:45;95146.81;;;0.07;100.00
20013;BME280;10167;42.852;23.042;2023-03-13T00:14:14;95144.53;;;0.04;100.00
20013;BME280;10167;42.852;23.042;2023-03-13T00:16:44;95135.47;;;-0.01;100.00
20013;BME280;10167;42.852;23.042;2023-03-13T00:19:14;95145.69;;;0.01;100.00
20013;BME280;10167;42.852;23.042;2023-03-13T00:21:43;95144.25;;;-0.02;100.00
20013;BME280;10167;42.852;23.042;2023-03-13T00:24:12;95149.75;;;0.04;100.00
20013;BME280;10167;42.852;23.042;2023-03-13T00:26:43;95141.63;;;-0.02;100.00
20013;BME280;10167;42.852;23.042;2023-03-13T00:29:13;95138.22;;;-0.02;100.00
20013;BME280;10167;42.852;23.042;2023-03-13T00:31:42;95143.44;;;-0.10;100.00
20013;BME280;10167;42.852;23.042;2023-03-13T00:34:11;95144.59;;;-0.13;100.00
20013;BME280;10167;42.852;23.042;2023-03-13T00:36:40;95148.81;;;-0.12;100.00
20013;BME280;10167;42.852;23.042;2023-03-13T00:39:09;95139.72;;;-0.16;100.00
20013;BME280;10167;42.852;23.042;2023-03-13T00:41:39;95141.16;;;-0.21;100.00
20013;BME280;10167;42.852;23.042;2023-03-13T00:44:09;95132.38;;;-0.12;100.00
20013;BME280;10167;42.852;23.042;2023-03-13T00:46:38;95128.16;;;-0.21;100.00
20013;BME280;10167;42.852;23.042;2023-03-13T00:49:07;95135.00;;;-0.28;100.00
20013;BME280;10167;42.852;23.042;2023-03-13T00:51:38;95136.78;;;-0.29;100.00
20013;BME280;10167;42.852;23.042;2023-03-13T00:54:07;95131.91;;;-0.24;100.00
20013;BME280;10167;42.852;23.042;2023-03-13T00:56:37;95128.31;;;-0.31;100.00
20013;BME280;10167;42.852;23.042;2023-03-13T00:59:07;95129.63;;;-0.27;100.00
20013;BME280;10167;42.852;23.042;2023-03-13T01:01:37;95115.16;;;-0.29;100.00
20013;BME280;10167;42.852;23.042;2023-03-13T01:04:10;95111.91;;;-0.31;100.00
20013;BME280;10167;42.852;23.042;2023-03-13T01:06:40;95122.81;;;-0.28;100.00
20013;BME280;10167;42.852;23.042;2023-03-13T01:09:12;95128.00;;;-0.28;100.00
20013;BME280;10167;42.852;23.042;2023-03-13T01:11:43;95126.38;;;-0.29;100.00
20013;BME280;10167;42.852;23.042;2023-03-13T01:14:15;95126.84;;;-0.33;100.00
20013;BME280;10167;42.852;23.042;2023-03-13T01:16:46;95131.59;;;-0.37;100.00
20013;BME280;10167;42.852;23.042;2023-03-13T01:19:17;95132.25;;;-0.35;100.00
20013;BME280;10167;42.852;23.042;2023-03-13T01:21:46;95128.69;;;-0.34;100.00
20013;BME280;10167;42.852;23.042;2023-03-13T01:24:16;95119.06;;;-0.42;100.00
20013;BME280;10167;42.852;23.042;2023-03-13T01:26:47;95124.94;;;-0.48;100.00
20013;BME280;10167;42.852;23.042;2023-03-13T01:29:17;95128.34;;;-0.47;100.00
20013;BME280;10167;42.852;23.042;2023-03-13T01:31:47;95125.91;;;-0.49;100.00
20013;BME280;10167;42.852;23.042;2023-03-13T01:34:17;95132.09;;;-0.50;100.00
20013;BME280;10167;42.852;23.042;2023-03-13T01:36:46;95127.69;;;-0.49;100.00
20013;BME280;10167;42.852;23.042;2023-03-13T01:39:17;95120.53;;;-0.55;100.00
20013;BME280;10167;42.852;23.042;2023-03-13T01:41:46;95129.31;;;-0.56;100.00
20013;BME280;10167;42.852;23.042;2023-03-13T01:44:21;95129.66;;;-0.59;100.00
20013;BME280;10167;42.852;23.042;2023-03-13T01:46:53;95130.47;;;-0.59;100.00
20013;BME280;10167;42.852;23.042;2023-03-13T01:49:27;95131.44;;;-0.60;100.00
20013;BME280;10167;42.852;23.042;2023-03-13T01:52:14;95134.84;;;-0.59;100.00
20013;BME280;10167;42.852;23.042;2023-03-13T01:54:56;95139.25;;;-0.68;100.00
20013;BME280;10167;42.852;23.042;2023-03-13T01:57:32;95138.25;;;-0.75;100.00
20013;BME280;10167;42.852;23.042;2023-03-13T02:00:07;95150.78;;;-0.70;100.00
20013;BME280;10167;42.852;23.042;2023-03-13T02:02:46;95148.66;;;-0.75;100.00
20013;BME280;10167;42.852;23.042;2023-03-13T02:05:18;95152.56;;;-0.79;100.00
20013;BME280;10167;42.852;23.042;2023-03-13T02:07:49;95166.84;;;-0.75;100.00
20013;BME280;10167;42.852;23.042;2023-03-13T02:10:20;95159.41;;;-0.70;100.00
20013;BME280;10167;42.852;23.042;2023-03-13T02:12:51;95155.00;;;-0.69;100.00
20013;BME280;10167;42.852;23.042;2023-03-13T02:15:22;95165.88;;;-0.66;100.00
20013;BME280;10167;42.852;23.042;2023-03-13T02:17:55;95166.84;;;-0.67;100.00
20013;BME280;10167;42.852;23.042;2023-03-13T02:20:24;95168.47;;;-0.66;100.00
20013;BME280;10167;42.852;23.042;2023-03-13T02:22:58;95174.84;;;-0.60;100.00
20013;BME280;10167;42.852;23.042;2023-03-13T02:25:40;95173.22;;;-0.61;100.00
20013;BME280;10167;42.852;23.042;2023-03-13T02:28:13;95174.34;;;-0.56;100.00
20013;BME280;10167;42.852;23.042;2023-03-13T02:30:43;95183.78;;;-0.55;100.00
20013;BME280;10167;42.852;23.042;2023-03-13T02:33:13;95186.53;;;-0.64;100.00
20013;BME280;10167;42.852;23.042;2023-03-13T02:35:45;95192.53;;;-0.64;100.00
20013;BME280;10167;42.852;23.042;2023-03-13T02:38:20;95190.44;;;-0.60;100.00
20013;BME280;10167;42.852;23.042;2023-03-13T02:40:53;95188.31;;;-0.65;100.00
20013;BME280;10167;42.852;23.042;2023-03-13T02:43:29;95187.81;;;-0.77;100.00
20013;BME280;10167;42.852;23.042;2023-03-13T02:46:01;95182.94;;;-0.80;100.00
20013;BME280;10167;42.852;23.042;2023-03-13T02:48:35;95191.22;;;-0.84;100.00
20013;BME280;10167;42.852;23.042;2023-03-13T02:51:09;95186.47;;;-0.89;100.00
20013;BME280;10167;42.852;23.042;2023-03-13T02:53:42;95194.91;;;-1.03;100.00
20013;BME280;10167;42.852;23.042;2023-03-13T02:56:14;95198.00;;;-0.99;100.00
20013;BME280;10167;42.852;23.042;2023-03-13T02:58:46;95210.97;;;-0.99;100.00
20013;BME280;10167;42.852;23.042;2023-03-13T03:01:20;95213.41;;;-1.06;100.00
20013;BME280;10167;42.852;23.042;2023-03-13T03:03:51;95210.00;;;-0.98;100.00
20013;BME280;10167;42.852;23.042;2023-03-13T03:06:22;95217.97;;;-1.00;100.00
20013;BME280;10167;42.852;23.042;2023-03-13T03:08:51;95216.53;;;-0.94;100.00
20013;BME280;10167;42.852;23.042;2023-03-13T03:11:22;95205.16;;;-0.93;100.00
20013;BME280;10167;42.852;23.042;2023-03-13T03:13:58;95217.19;;;-0.92;100.00
20013;BME280;10167;42.852;23.042;2023-03-13T03:16:31;95215.06;;;-0.97;100.00
20013;BME280;10167;42.852;23.042;2023-03-13T03:19:01;95219.59;;;-0.99;100.00
20013;BME280;10167;42.852;23.042;2023-03-13T03:21:30;95228.38;;;-1.00;100.00
20013;BME280;10167;42.852;23.042;2023-03-13T03:23:59;95237.47;;;-1.04;100.00
20013;BME280;10167;42.852;23.042;2023-03-13T03:26:30;95239.09;;;-1.03;100.00
20013;BME280;10167;42.852;23.042;2023-03-13T03:29:01;95229.19;;;-0.99;100.00
20013;BME280;10167;42.852;23.042;2023-03-13T03:31:31;95235.34;;;-1.00;100.00
20013;BME280;10167;42.852;23.042;2023-03-13T03:34:01;95251.28;;;-1.03;100.00
20013;BME280;10167;42.852;23.042;2023-03-13T03:36:31;95255.50;;;-1.02;100.00
20013;BME280;10167;42.852;23.042;2023-03-13T03:39:02;95254.19;;;-1.06;100.00
20013;BME280;10167;42.852;23.042;2023-03-13T03:41:33;95261.53;;;-1.02;100.00
20013;BME280;10167;42.852;23.042;2023-03-13T03:44:05;95272.41;;;-0.98;100.00
20013;BME280;10167;42.852;23.042;2023-03-13T03:47:04;95273.72;;;-0.94;100.00
20013;BME280;10167;42.852;23.042;2023-03-13T03:49:38;95279.72;;;-0.94;100.00
20013;BME280;10167;42.852;23.042;2023-03-13T03:52:10;95284.94;;;-0.94;100.00
20013;BME280;10167;42.852;23.042;2023-03-13T03:54:42;95289.66;;;-0.89;100.00
20013;BME280;10167;42.852;23.042;2023-03-13T03:57:14;95291.28;;;-0.88;100.00
20013;BME280;10167;42.852;23.042;2023-03-13T03:59:46;95290.00;;;-0.84;100.00
20013;BME280;10167;42.852;23.042;2023-03-13T04:02:16;95306.28;;;-0.74;100.00
20013;BME280;10167;42.852;23.042;2023-03-13T04:04:45;95302.03;;;-0.83;100.00
20013;BME280;10167;42.852;23.042;2023-03-13T04:07:22;95305.63;;;-0.76;100.00
20013;BME280;10167;42.852;23.042;2023-03-13T04:09:51;95302.69;;;-0.81;100.00
20013;BME280;10167;42.852;23.042;2023-03-13T04:12:29;95312.44;;;-0.83;100.00
20013;BME280;10167;42.852;23.042;2023-03-13T04:14:58;95312.94;;;-0.80;100.00
20013;BME280;10167;42.852;23.042;2023-03-13T04:17:28;95310.66;;;-0.83;100.00
20013;BME280;10167;42.852;23.042;2023-03-13T04:19:58;95319.06;;;-0.89;100.00
20013;BME280;10167;42.852;23.042;2023-03-13T04:22:30;95329.31;;;-0.87;100.00
20013;BME280;10167;42.852;23.042;2023-03-13T04:24:59;95323.63;;;-0.91;100.00
20013;BME280;10167;42.852;23.042;2023-03-13T04:27:33;95332.72;;;-0.87;100.00
20013;BME280;10167;42.852;23.042;2023-03-13T04:30:04;95329.59;;;-0.90;100.00
20013;BME280;10167;42.852;23.042;2023-03-13T04:32:36;95340.34;;;-0.93;100.00
20013;BME280;10167;42.852;23.042;2023-03-13T04:35:21;95345.84;;;-0.96;100.00
20013;BME280;10167;42.852;23.042;2023-03-13T04:38:19;95346.47;;;-1.02;100.00
20013;BME280;10167;42.852;23.042;2023-03-13T04:40:56;95336.97;;;-1.12;100.00
20013;BME280;10167;42.852;23.042;2023-03-13T04:43:52;95353.72;;;-1.14;100.00
20013;BME280;10167;42.852;23.042;2023-03-13T04:46:40;95340.47;;;-1.29;100.00
20013;BME280;10167;42.852;23.042;2023-03-13T04:49:34;95338.78;;;-1.38;100.00
20013;BME280;10167;42.852;23.042;2023-03-13T04:52:26;95344.28;;;-1.41;100.00
20013;BME280;10167;42.852;23.042;2023-03-13T04:55:19;95347.31;;;-1.46;100.00
20013;BME280;10167;42.852;23.042;2023-03-13T04:58:00;95354.63;;;-1.49;100.00
20013;BME280;10167;42.852;23.042;2023-03-13T05:00:48;95363.13;;;-1.39;100.00
20013;BME280;10167;42.852;23.042;2023-03-13T05:03:36;95358.38;;;-1.18;100.00
20013;BME280;10167;42.852;23.042;2023-03-13T05:06:16;95358.44;;;-1.10;100.00
20013;BME280;10167;42.852;23.042;2023-03-13T05:09:00;95358.03;;;-0.89;100.00
20013;BME280;10167;42.852;23.042;2023-03-13T05:11:49;95357.16;;;-0.71;100.00
20013;BME280;10167;42.852;23.042;2023-03-13T05:14:50;95363.09;;;-0.53;100.00
20013;BME280;10167;42.852;23.042;2023-03-13T05:17:28;95376.84;;;-0.19;100.00
20013;BME280;10167;42.852;23.042;2023-03-13T05:20:22;95384.72;;;0.14;100.00
20013;BME280;10167;42.852;23.042;2023-03-13T05:23:00;95387.38;;;0.54;100.00
20013;BME280;10167;42.852;23.042;2023-03-13T05:25:45;95391.91;;;0.93;100.00
20013;BME280;10167;42.852;23.042;2023-03-13T05:28:33;95393.94;;;1.30;100.00
20013;BME280;10167;42.852;23.042;2023-03-13T05:31:24;95400.00;;;1.69;100.00
20013;BME280;10167;42.852;23.042;2023-03-13T05:34:17;95400.34;;;2.28;99.37
20013;BME280;10167;42.852;23.042;2023-03-13T05:36:55;95404.31;;;2.47;94.50
20013;BME280;10167;42.852;23.042;2023-03-13T05:39:34;95398.72;;;2.50;93.59
20013;BME280;10167;42.852;23.042;2023-03-13T05:42:26;95405.75;;;2.49;93.58
20013;BME280;10167;42.852;23.042;2023-03-13T05:45:18;95405.53;;;2.59;92.40
20013;BME280;10167;42.852;23.042;2023-03-13T05:48:16;95404.34;;;2.62;93.67
20013;BME280;10167;42.852;23.042;2023-03-13T05:51:11;95406.66;;;3.02;90.87
20013;BME280;10167;42.852;23.042;2023-03-13T05:53:50;95415.91;;;3.57;87.33
20013;BME280;10167;42.852;23.042;2023-03-13T05:56:39;95420.97;;;4.24;78.67
20013;BME280;10167;42.852;23.042;2023-03-13T05:59:46;95423.63;;;5.09;72.26
20013;BME280;10167;42.852;23.042;2023-03-13T06:02:54;95418.13;;;6.35;65.03
20013;BME280;10167;42.852;23.042;2023-03-13T06:05:57;95411.16;;;7.48;58.40
20013;BME280;10167;42.852;23.042;2023-03-13T06:15:10;95414.19;;;9.98;49.65
20013;BME280;10167;42.852;23.042;2023-03-13T06:17:51;95420.22;;;10.60;47.01
20013;BME280;10167;42.852;23.042;2023-03-13T06:20:22;95424.13;;;10.99;45.72
20013;BME280;10167;42.852;23.042;2023-03-13T06:22:51;95417.47;;;11.08;44.91
20013;BME280;10167;42.852;23.042;2023-03-13T06:25:20;95426.41;;;11.25;44.23
20013;BME280;10167;42.852;23.042;2023-03-13T06:27:49;95429.91;;;11.49;44.22
20013;BME280;10167;42.852;23.042;2023-03-13T06:30:20;95426.47;;;11.72;43.46
20013;BME280;10167;42.852;23.042;2023-03-13T06:32:50;95429.38;;;11.93;43.00
20013;BME280;10167;42.852;23.042;2023-03-13T06:35:20;95428.75;;;12.26;42.69
20013;BME280;10167;42.852;23.042;2023-03-13T06:37:49;95427.66;;;12.51;41.78
20013;BME280;10167;42.852;23.042;2023-03-13T06:40:18;95435.78;;;12.32;40.65
20013;BME280;10167;42.852;23.042;2023-03-13T06:42:47;95430.03;;;12.24;40.81
20013;BME280;10167;42.852;23.042;2023-03-13T06:45:17;95421.03;;;12.13;41.54
20013;BME280;10167;42.852;23.042;2023-03-13T06:47:48;95425.56;;;11.89;42.29
20013;BME280;10167;42.852;23.042;2023-03-13T06:50:19;95433.47;;;11.54;42.75
20013;BME280;10167;42.852;23.042;2023-03-13T06:52:49;95429.28;;;11.23;43.51
20013;BME280;10167;42.852;23.042;2023-03-13T06:55:18;95422.16;;;9.73;47.45
20013;BME280;10167;42.852;23.042;2023-03-13T06:57:49;95430.19;;;8.41;50.24
20013;BME280;10167;42.852;23.042;2023-03-13T07:00:19;95424.28;;;9.64;47.96
20013;BME280;10167;42.852;23.042;2023-03-13T07:02:51;95423.81;;;9.92;47.62
20013;BME280;10167;42.852;23.042;2023-03-13T07:05:20;95410.34;;;9.94;47.49
20013;BME280;10167;42.852;23.042;2023-03-13T07:07:50;95419.03;;;10.01;46.52
20013;BME280;10167;42.852;23.042;2023-03-13T07:10:19;95409.22;;;8.90;50.20
20013;BME280;10167;42.852;23.042;2023-03-13T07:12:51;95415.00;;;9.55;48.16
20013;BME280;10167;42.852;23.042;2023-03-13T07:15:20;95412.75;;;9.09;48.88
20013;BME280;10167;42.852;23.042;2023-03-13T07:17:51;95417.97;;;9.40;48.37
20013;BME280;10167;42.852;23.042;2023-03-13T07:20:20;95422.06;;;9.61;48.14
20013;BME280;10167;42.852;23.042;2023-03-13T07:22:53;95409.38;;;8.64;50.01
20013;BME280;10167;42.852;23.042;2023-03-13T07:25:22;95412.22;;;8.62;50.30
20013;BME280;10167;42.852;23.042;2023-03-13T07:27:51;95417.56;;;8.87;49.47
20013;BME280;10167;42.852;23.042;2023-03-13T07:30:20;95416.41;;;9.08;48.32
20013;BME280;10167;42.852;23.042;2023-03-13T07:32:52;95408.09;;;9.29;47.95
20013;BME280;10167;42.852;23.042;2023-03-13T07:35:21;95410.25;;;9.39;48.08
20013;BME280;10167;42.852;23.042;2023-03-13T07:37:51;95410.31;;;9.57;47.98
20013;BME280;10167;42.852;23.042;2023-03-13T07:40:20;95403.94;;;9.83;46.54
20013;BME280;10167;42.852;23.042;2023-03-13T07:42:49;95400.66;;;9.69;46.50
20013;BME280;10167;42.852;23.042;2023-03-13T07:45:19;95403.94;;;9.83;45.83
20013;BME280;10167;42.852;23.042;2023-03-13T07:47:48;95400.22;;;9.91;45.61
20013;BME280;10167;42.852;23.042;2023-03-13T07:50:19;95406.97;;;10.05;45.37
20013;BME280;10167;42.852;23.042;2023-03-13T07:52:52;95412.34;;;9.98;46.66
20013;BME280;10167;42.852;23.042;2023-03-13T07:55:21;95413.53;;;10.02;44.15
20013;BME280;10167;42.852;23.042;2023-03-13T07:57:50;95418.22;;;10.00;45.29
20013;BME280;10167;42.852;23.042;2023-03-13T08:00:20;95428.72;;;10.07;43.98
20013;BME280;10167;42.852;23.042;2023-03-13T08:02:50;95426.69;;;10.27;44.96
20013;BME280;10167;42.852;23.042;2023-03-13T08:05:21;95424.63;;;10.29;45.39
20013;BME280;10167;42.852;23.042;2023-03-13T08:07:50;95420.69;;;10.20;45.34
20013;BME280;10167;42.852;23.042;2023-03-13T08:10:20;95419.50;;;10.34;44.26
20013;BME280;10167;42.852;23.042;2023-03-13T08:12:50;95417.41;;;10.54;44.78
20013;BME280;10167;42.852;23.042;2023-03-13T08:15:19;95416.97;;;10.39;46.09
20013;BME280;10167;42.852;23.042;2023-03-13T08:17:52;95413.91;;;10.72;43.23
20013;BME280;10167;42.852;23.042;2023-03-13T08:20:23;95403.09;;;10.74;44.26
20013;BME280;10167;42.852;23.042;2023-03-13T08:22:55;95411.44;;;9.86;46.36
20013;BME280;10167;42.852;23.042;2023-03-13T08:25:24;95412.22;;;10.30;46.51
20013;BME280;10167;42.852;23.042;2023-03-13T08:27:53;95402.31;;;10.25;45.73
20013;BME280;10167;42.852;23.042;2023-03-13T08:30:23;95407.34;;;10.45;45.10
20013;BME280;10167;42.852;23.042;2023-03-13T08:32:53;95404.66;;;10.93;43.62
20013;BME280;10167;42.852;23.042;2023-03-13T08:35:24;95405.84;;;10.67;43.94
20013;BME280;10167;42.852;23.042;2023-03-13T08:37:53;95397.28;;;10.95;44.01
20013;BME280;10167;42.852;23.042;2023-03-13T08:40:22;95402.50;;;11.02;43.60
20013;BME280;10167;42.852;23.042;2023-03-13T08:42:51;95408.41;;;11.15;42.56
20013;BME280;10167;42.852;23.042;2023-03-13T08:45:21;95399.81;;;10.90;43.15
20013;BME280;10167;42.852;23.042;2023-03-13T08:47:51;95403.00;;;10.50;43.14
20013;BME280;10167;42.852;23.042;2023-03-13T08:50:22;95398.63;;;11.16;41.31
20013;BME280;10167;42.852;23.042;2023-03-13T08:52:52;95397.13;;;10.78;41.40
20013;BME280;10167;42.852;23.042;2023-03-13T08:55:21;95403.22;;;11.20;41.44
20013;BME280;10167;42.852;23.042;2023-03-13T08:57:52;95408.34;;;11.45;41.39
20013;BME280;10167;42.852;23.042;2023-03-13T09:00:22;95412.38;;;11.71;39.73
20013;BME280;10167;42.852;23.042;2023-03-13T09:02:51;95410.22;;;12.03;39.82
20013;BME280;10167;42.852;23.042;2023-03-13T09:05:21;95402.47;;;12.13;39.24
20013;BME280;10167;42.852;23.042;2023-03-13T09:07:52;95408.63;;;12.30;38.51
20013;BME280;10167;42.852;23.042;2023-03-13T09:10:21;95397.28;;;11.72;39.94
20013;BME280;10167;42.852;23.042;2023-03-13T09:12:50;95412.75;;;11.98;40.81
20013;BME280;10167;42.852;23.042;2023-03-13T09:15:20;95403.28;;;12.02;40.05
20013;BME280;10167;42.852;23.042;2023-03-13T09:17:49;95400.47;;;12.20;39.31
20013;BME280;10167;42.852;23.042;2023-03-13T09:20:18;95391.84;;;12.53;38.96
20013;BME280;10167;42.852;23.042;2023-03-13T09:22:47;95394.38;;;12.60;38.53
20013;BME280;10167;42.852;23.042;2023-03-13T09:25:18;95392.56;;;12.49;40.01
20013;BME280;10167;42.852;23.042;2023-03-13T09:27:47;95390.22;;;12.64;39.35
20013;BME280;10167;42.852;23.042;2023-03-13T09:30:17;95383.59;;;12.66;39.27
20013;BME280;10167;42.852;23.042;2023-03-13T09:32:46;95385.47;;;12.26;41.13
20013;BME280;10167;42.852;23.042;2023-03-13T09:35:15;95372.66;;;12.23;40.68
20013;BME280;10167;42.852;23.042;2023-03-13T09:37:44;95377.28;;;12.16;40.97
20013;BME280;10167;42.852;23.042;2023-03-13T09:40:14;95377.50;;;12.26;40.81
20013;BME280;10167;42.852;23.042;2023-03-13T09:42:48;95371.34;;;12.37;43.60
20013;BME280;10167;42.852;23.042;2023-03-13T09:45:23;95380.56;;;12.75;41.16
20013;BME280;10167;42.852;23.042;2023-03-13T09:48:00;95371.34;;;12.94;40.37
20013;BME280;10167;42.852;23.042;2023-03-13T09:50:33;95374.56;;;13.41;40.86
20013;BME280;10167;42.852;23.042;2023-03-13T09:53:11;95359.84;;;13.05;40.86
20013;BME280;10167;42.852;23.042;2023-03-13T09:55:43;95370.78;;;12.35;40.60
20013;BME280;10167;42.852;23.042;2023-03-13T09:58:17;95362.25;;;12.61;40.09
20013;BME280;10167;42.852;23.042;2023-03-13T10:00:50;95356.59;;;12.29;40.18
20013;BME280;10167;42.852;23.042;2023-03-13T10:03:25;95359.16;;;12.81;40.58
20013;BME280;10167;42.852;23.042;2023-03-13T10:05:58;95349.84;;;12.67;41.04
20013;BME280;10167;42.852;23.042;2023-03-13T10:08:31;95357.06;;;13.00;39.66
20013;BME280;10167;42.852;23.042;2023-03-13T10:11:03;95352.75;;;12.65;39.60
20013;BME280;10167;42.852;23.042;2023-03-13T10:13:40;95347.19;;;12.95;40.19
20013;BME280;10167;42.852;23.042;2023-03-13T10:16:13;95337.94;;;12.13;41.35
20013;BME280;10167;42.852;23.042;2023-03-13T10:18:51;95346.94;;;12.12;41.48
20013;BME280;10167;42.852;23.042;2023-03-13T10:21:25;95330.09;;;12.46;41.84
20013;BME280;10167;42.852;23.042;2023-03-13T10:24:01;95339.50;;;12.54;41.67
20013;BME280;10167;42.852;23.042;2023-03-13T10:26:34;95327.34;;;13.03;40.75
20013;BME280;10167;42.852;23.042;2023-03-13T10:29:19;95324.25;;;13.23;40.73
20013;BME280;10167;42.852;23.042;2023-03-13T10:31:55;95319.22;;;12.93;40.98
20013;BME280;10167;42.852;23.042;2023-03-13T10:34:27;95316.84;;;13.25;39.52
20013;BME280;10167;42.852;23.042;2023-03-13T10:36:59;95312.59;;;13.62;39.74
20013;BME280;10167;42.852;23.042;2023-03-13T10:39:28;95306.72;;;13.10;40.50
20013;BME280;10167;42.852;23.042;2023-03-13T10:42:08;95314.91;;;13.37;40.98
20013;BME280;10167;42.852;23.042;2023-03-13T10:44:39;95305.47;;;13.68;39.38
20013;BME280;10167;42.852;23.042;2023-03-13T10:47:11;95299.25;;;14.23;39.03
20013;BME280;10167;42.852;23.042;2023-03-13T10:49:47;95305.75;;;14.53;38.01
20013;BME280;10167;42.852;23.042;2023-03-13T10:52:29;95301.53;;;14.14;37.87
20013;BME280;10167;42.852;23.042;2023-03-13T10:55:02;95287.28;;;14.25;37.78
20013;BME280;10167;42.852;23.042;2023-03-13T10:57:33;95290.03;;;13.87;38.92
20013;BME280;10167;42.852;23.042;2023-03-13T11:00:27;95286.34;;;14.36;37.81
20013;BME280;10167;42.852;23.042;2023-03-13T11:02:56;95288.00;;;13.94;38.74
20013;BME280;10167;42.852;23.042;2023-03-13T11:17:22;95267.81;;;15.79;35.94
20013;BME280;10167;42.852;23.042;2023-03-13T11:20:01;95267.22;;;15.35;35.95
20013;BME280;10167;42.852;23.042;2023-03-13T11:22:52;95257.91;;;15.38;36.38
20013;BME280;10167;42.852;23.042;2023-03-13T11:25:30;95255.78;;;15.40;37.34
20013;BME280;10167;42.852;23.042;2023-03-13T11:28:19;95255.59;;;15.09;35.80
20013;BME280;10167;42.852;23.042;2023-03-13T11:30:59;95255.00;;;15.91;35.03
20013;BME280;10167;42.852;23.042;2023-03-13T11:33:47;95239.41;;;15.21;35.41
20013;BME280;10167;42.852;23.042;2023-03-13T11:36:21;95237.91;;;14.66;37.14
20013;BME280;10167;42.852;23.042;2023-03-13T11:39:03;95235.31;;;16.03;36.80
20013;BME280;10167;42.852;23.042;2023-03-13T11:41:47;95227.00;;;16.04;35.55
20013;BME280;10167;42.852;23.042;2023-03-13T11:44:28;95217.19;;;16.20;34.67
20013;BME280;10167;42.852;23.042;2023-03-13T11:47:20;95209.72;;;16.32;36.20
20013;BME280;10167;42.852;23.042;2023-03-13T11:50:01;95208.47;;;16.75;33.95
20013;BME280;10167;42.852;23.042;2023-03-13T11:52:42;95204.03;;;15.98;36.39
20013;BME280;10167;42.852;23.042;2023-03-13T11:55:31;95201.13;;;16.15;35.03
20013;BME280;10167;42.852;23.042;2023-03-13T12:01:05;95194.63;;;15.80;35.39
20013;BME280;10167;42.852;23.042;2023-03-13T12:03:38;95193.91;;;16.00;35.44
20013;BME280;10167;42.852;23.042;2023-03-13T12:06:21;95184.81;;;16.01;34.28
20013;BME280;10167;42.852;23.042;2023-03-13T12:08:59;95190.63;;;15.78;35.58
20013;BME280;10167;42.852;23.042;2023-03-13T12:11:32;95192.34;;;16.29;36.18
20013;BME280;10167;42.852;23.042;2023-03-13T12:14:09;95184.88;;;16.31;34.47
20013;BME280;10167;42.852;23.042;2023-03-13T12:16:42;95180.66;;;16.71;34.51
20013;BME280;10167;42.852;23.042;2023-03-13T12:19:16;95186.22;;;17.25;33.52
20013;BME280;10167;42.852;23.042;2023-03-13T12:21:51;95182.78;;;17.15;33.44
20013;BME280;10167;42.852;23.042;2023-03-13T12:24:25;95186.44;;;17.44;32.96
20013;BME280;10167;42.852;23.042;2023-03-13T12:26:59;95177.66;;;17.23;32.78
20013;BME280;10167;42.852;23.042;2023-03-13T12:29:42;95181.88;;;17.45;32.55
20013;BME280;10167;42.852;23.042;2023-03-13T12:32:17;95179.47;;;17.43;32.34
20013;BME280;10167;42.852;23.042;2023-03-13T12:34:54;95185.34;;;17.50;31.89
20013;BME280;10167;42.852;23.042;2023-03-13T12:37:33;95182.44;;;17.31;32.40
20013;BME280;10167;42.852;23.042;2023-03-13T12:40:15;95177.34;;;18.09;30.53
20013;BME280;10167;42.852;23.042;2023-03-13T12:42:54;95163.25;;;18.38;30.12
20013;BME280;10167;42.852;23.042;2023-03-13T12:45:25;95173.94;;;18.82;29.65
20013;BME280;10167;42.852;23.042;2023-03-13T12:48:19;95164.06;;;19.06;28.91
20013;BME280;10167;42.852;23.042;2023-03-13T12:51:04;95165.56;;;18.89;27.94
20013;BME280;10167;42.852;23.042;2023-03-13T12:53:50;95162.66;;;19.38;27.63
20013;BME280;10167;42.852;23.042;2023-03-13T12:56:43;95164.66;;;19.27;25.99
20013;BME280;10167;42.852;23.042;2023-03-13T12:59:17;95162.16;;;19.36;26.60
20013;BME280;10167;42.852;23.042;2023-03-13T13:01:50;95157.41;;;19.28;26.27
20013;BME280;10167;42.852;23.042;2023-03-13T13:04:23;95159.47;;;19.36;25.87
20013;BME280;10167;42.852;23.042;2023-03-13T13:06:57;95146.88;;;19.07;25.33
20013;BME280;10167;42.852;23.042;2023-03-13T13:09:31;95154.41;;;19.05;25.27
20013;BME280;10167;42.852;23.042;2023-03-13T13:12:03;95155.75;;;18.74;24.40
20013;BME280;10167;42.852;23.042;2023-03-13T13:15:02;95147.06;;;18.14;24.58
20013;BME280;10167;42.852;23.042;2023-03-13T13:17:45;95147.97;;;17.15;24.74
20013;BME280;10167;42.852;23.042;2023-03-13T13:20:45;95146.84;;;17.31;25.18
20013;BME280;10167;42.852;23.042;2023-03-13T13:23:31;95146.63;;;17.22;25.29
20013;BME280;10167;42.852;23.042;2023-03-13T13:32:40;95134.66;;;16.33;25.82
20013;BME280;10167;42.852;23.042;2023-03-13T13:35:31;95125.78;;;16.08;24.12
20013;BME280;10167;42.852;23.042;2023-03-13T13:38:30;95124.75;;;16.14;25.59
20013;BME280;10167;42.852;23.042;2023-03-13T13:41:25;95128.72;;;16.16;25.06
20013;BME280;10167;42.852;23.042;2023-03-13T13:44:26;95117.44;;;15.74;25.21
20013;BME280;10167;42.852;23.042;2023-03-13T13:46:56;95120.38;;;15.67;25.31
20013;BME280;10167;42.852;23.042;2023-03-13T13:49:37;95122.00;;;15.16;26.20
20013;BME280;10167;42.852;23.042;2023-03-13T13:52:38;95112.19;;;15.32;26.05
20013;BME280;10167;42.852;23.042;2023-03-13T13:55:30;95102.81;;;15.24;27.49
20013;BME280;10167;42.852;23.042;2023-03-13T13:58:03;95107.59;;;15.12;28.45